createdAt,value
2018-03-08T00:00:08.578Z,71.93
2018-03-08T00:02:36.882Z,71.70
2018-03-08T00:05:05.944Z,71.58
2018-03-08T00:07:34.246Z,71.31
2018-03-08T00:10:02.506Z,71.94
2018-03-08T00:12:30.801Z,71.83
2018-03-08T00:14:59.067Z,71.84
2018-03-08T00:17:27.387Z,71.74
2018-03-08T00:19:55.648Z,71.58
2018-03-08T00:22:23.986Z,71.79
2018-03-08T00:24:52.261Z,71.95
2018-03-08T00:27:20.559Z,72.01
2018-03-08T00:29:48.804Z,72.12
2018-03-08T00:32:17.179Z,71.94
2018-03-08T00:34:45.448Z,71.88
2018-03-08T00:37:13.737Z,71.77
2018-03-08T00:39:42.042Z,71.88
2018-03-08T00:42:10.294Z,71.89
2018-03-08T00:44:38.616Z,71.90
2018-03-08T00:47:06.872Z,71.71
2018-03-08T00:49:35.166Z,71.54
2018-03-08T00:52:03.429Z,71.81
2018-03-08T00:54:32.532Z,71.92
2018-03-08T00:57:00.804Z,72.37
2018-03-08T00:59:29.320Z,71.76
2018-03-08T01:01:57.635Z,72.05
2018-03-08T01:04:25.956Z,71.72
2018-03-08T01:06:54.404Z,71.67
2018-03-08T01:09:22.707Z,71.74
2018-03-08T01:11:50.997Z,71.73
2018-03-08T01:14:19.334Z,71.54
2018-03-08T01:16:47.601Z,71.42
2018-03-08T01:19:15.921Z,71.35
2018-03-08T01:21:44.212Z,71.02
2018-03-08T01:24:12.941Z,70.81
2018-03-08T01:26:41.227Z,70.67
2018-03-08T01:29:09.555Z,70.68
2018-03-08T01:31:37.823Z,70.86
2018-03-08T01:34:06.100Z,70.68
2018-03-08T01:36:34.395Z,70.80
2018-03-08T01:39:02.703Z,70.64
2018-03-08T01:41:31.009Z,70.84
2018-03-08T01:43:59.284Z,70.79
2018-03-08T01:46:27.621Z,70.70
2018-03-08T01:48:55.914Z,70.67
2018-03-08T01:51:24.200Z,70.50
2018-03-08T01:53:52.489Z,70.60
2018-03-08T01:56:20.774Z,70.68
2018-03-08T01:58:49.077Z,70.48
2018-03-08T02:01:17.372Z,70.16
2018-03-08T02:03:45.678Z,70.04
2018-03-08T02:06:13.969Z,69.98
2018-03-08T02:08:42.348Z,69.97
2018-03-08T02:11:10.655Z,69.86
2018-03-08T02:13:39.813Z,69.58
2018-03-08T02:16:08.104Z,69.26
2018-03-08T02:18:36.375Z,69.21
2018-03-08T02:21:05.003Z,69.46
2018-03-08T02:23:33.242Z,69.74
2018-03-08T02:26:01.565Z,69.83
2018-03-08T02:28:29.968Z,69.47
2018-03-08T02:30:58.299Z,69.99
2018-03-08T02:33:26.581Z,69.87
2018-03-08T02:35:54.849Z,69.88
2018-03-08T02:38:23.510Z,69.87
2018-03-08T02:40:51.801Z,70.25
2018-03-08T02:43:20.090Z,70.23
2018-03-08T02:45:48.369Z,70.23
2018-03-08T02:48:16.681Z,70.38
2018-03-08T02:50:44.942Z,69.78
2018-03-08T02:53:13.248Z,69.33
2018-03-08T02:55:41.541Z,69.57
2018-03-08T02:58:09.858Z,69.42
2018-03-08T03:00:38.111Z,69.53
2018-03-08T03:03:06.631Z,69.62
2018-03-08T03:05:34.873Z,70.06
2018-03-08T03:08:03.216Z,70.08
2018-03-08T03:10:31.603Z,70.04
2018-03-08T03:12:59.896Z,69.98
2018-03-08T03:15:28.235Z,69.80
2018-03-08T03:17:56.533Z,69.46
2018-03-08T03:20:24.804Z,69.63
2018-03-08T03:22:53.104Z,70.04
2018-03-08T03:25:21.387Z,70.17
2018-03-08T03:27:49.681Z,70.49
2018-03-08T03:30:17.999Z,70.86
2018-03-08T03:32:46.285Z,70.84
2018-03-08T03:35:14.575Z,70.61
2018-03-08T03:37:42.842Z,70.71
2018-03-08T03:40:11.196Z,71.02
2018-03-08T03:42:39.432Z,71.08
2018-03-08T03:45:07.745Z,70.88
2018-03-08T03:47:36.085Z,70.90
2018-03-08T03:50:04.367Z,71.42
2018-03-08T03:52:32.646Z,71.41
2018-03-08T03:55:00.956Z,71.63
2018-03-08T03:57:29.243Z,71.44
2018-03-08T03:59:57.551Z,71.38
2018-03-08T04:02:25.844Z,71.32
2018-03-08T04:04:54.131Z,71.09
2018-03-08T04:07:22.483Z,70.63
2018-03-08T04:09:50.778Z,70.81
2018-03-08T04:12:19.045Z,70.73
2018-03-08T04:14:47.352Z,70.77
2018-03-08T04:17:15.664Z,71.08
2018-03-08T04:19:43.964Z,71.65
2018-03-08T04:22:12.319Z,72.46
2018-03-08T04:24:40.652Z,72.22
2018-03-08T04:27:08.927Z,72.38
2018-03-08T04:29:37.235Z,72.52
2018-03-08T04:32:05.513Z,72.90
2018-03-08T04:34:33.785Z,73.57
2018-03-08T04:37:02.072Z,73.84
2018-03-08T04:39:30.343Z,73.85
2018-03-08T04:41:58.650Z,73.75
2018-03-08T04:44:26.891Z,73.55
2018-03-08T04:46:55.202Z,73.44
2018-03-08T04:49:23.440Z,73.11
2018-03-08T04:51:51.796Z,72.64
2018-03-08T04:54:20.270Z,72.90
2018-03-08T04:56:48.587Z,73.28
2018-03-08T04:59:16.871Z,73.90
2018-03-08T05:01:45.211Z,74.34
2018-03-08T05:04:13.499Z,74.08
2018-03-08T05:06:41.807Z,74.73
2018-03-08T05:09:10.081Z,74.55
2018-03-08T05:11:38.377Z,74.57
2018-03-08T05:14:06.678Z,75.15
2018-03-08T05:16:34.956Z,75.02
2018-03-08T05:19:03.222Z,75.13
2018-03-08T05:21:31.519Z,74.85
2018-03-08T05:23:59.808Z,75.00
2018-03-08T05:26:28.106Z,74.66
2018-03-08T05:28:56.379Z,74.83
2018-03-08T05:31:24.681Z,74.90
2018-03-08T05:33:52.997Z,74.50
2018-03-08T05:36:21.389Z,75.29
2018-03-08T05:38:49.691Z,74.46
2018-03-08T05:41:18.016Z,74.81
2018-03-08T05:43:46.325Z,74.82
2018-03-08T05:46:14.593Z,74.67
2018-03-08T05:48:42.930Z,74.51
2018-03-08T05:51:11.218Z,74.22
2018-03-08T05:53:39.495Z,74.57
2018-03-08T05:56:07.739Z,74.56
2018-03-08T05:58:36.061Z,74.77
2018-03-08T06:01:04.328Z,74.42
2018-03-08T06:03:32.629Z,75.01
2018-03-08T06:06:00.960Z,74.79
2018-03-08T06:08:29.242Z,74.90
2018-03-08T06:10:57.595Z,74.88
2018-03-08T06:13:25.896Z,74.90
2018-03-08T06:15:54.164Z,74.88
2018-03-08T06:18:22.509Z,74.72
2018-03-08T06:20:50.783Z,74.81
2018-03-08T06:23:19.089Z,75.15
2018-03-08T06:25:47.362Z,74.81
2018-03-08T06:28:15.715Z,74.80
2018-03-08T06:30:44.016Z,74.30
2018-03-08T06:33:12.319Z,74.12
2018-03-08T06:35:40.934Z,73.87
2018-03-08T06:38:09.228Z,74.18
2018-03-08T06:40:37.666Z,74.52
2018-03-08T06:43:05.914Z,74.17
2018-03-08T06:45:34.239Z,74.09
2018-03-08T06:48:02.640Z,74.22
2018-03-08T06:50:31.875Z,74.65
2018-03-08T06:53:00.183Z,74.75
2018-03-08T06:55:28.452Z,74.59
2018-03-08T06:57:57.873Z,74.36
2018-03-08T07:00:27.179Z,74.05
2018-03-08T07:02:55.510Z,74.65
2018-03-08T07:05:23.883Z,74.57
2018-03-08T07:07:52.120Z,74.53
2018-03-08T07:10:21.079Z,74.17
2018-03-08T07:12:49.432Z,73.82
2018-03-08T07:15:17.732Z,73.92
2018-03-08T07:17:46.039Z,74.06
2018-03-08T07:20:14.387Z,73.86
2018-03-08T07:22:42.686Z,73.64
2018-03-08T07:25:10.985Z,73.55
2018-03-08T07:27:39.300Z,73.61
2018-03-08T07:30:07.617Z,73.23
2018-03-08T07:32:35.880Z,73.56
2018-03-08T07:35:05.188Z,73.88
2018-03-08T07:37:33.561Z,73.90
2018-03-08T07:40:01.851Z,74.01
2018-03-08T07:42:30.160Z,73.99
2018-03-08T07:44:58.432Z,73.77
2018-03-08T07:47:26.687Z,73.44
2018-03-08T07:49:54.944Z,73.17
2018-03-08T07:52:24.401Z,72.93
2018-03-08T07:54:52.630Z,73.12
2018-03-08T07:57:20.913Z,73.14
2018-03-08T07:59:49.195Z,73.32
2018-03-08T08:02:17.468Z,73.30
2018-03-08T08:04:57.417Z,73.22
2018-03-08T08:07:37.559Z,73.16
2018-03-08T08:10:05.833Z,72.99
2018-03-08T08:12:34.183Z,73.08
2018-03-08T08:15:02.806Z,73.08
2018-03-08T08:17:31.186Z,73.09
2018-03-08T08:19:59.563Z,72.78
2018-03-08T08:22:27.874Z,72.50
2018-03-08T08:24:56.128Z,71.77
2018-03-08T08:27:24.439Z,71.51
2018-03-08T08:29:52.682Z,71.84
2018-03-08T08:32:21.147Z,71.25
2018-03-08T08:34:49.426Z,72.36
2018-03-08T08:37:17.712Z,72.59
2018-03-08T08:39:45.992Z,72.50
2018-03-08T08:42:14.268Z,71.95
2018-03-08T08:44:42.737Z,71.93
2018-03-08T08:47:11.310Z,71.78
2018-03-08T08:49:39.716Z,71.87
2018-03-08T08:52:08.012Z,72.23
2018-03-08T08:54:36.384Z,72.26
2018-03-08T08:57:04.768Z,72.17
2018-03-08T08:59:33.125Z,72.13
2018-03-08T09:02:01.481Z,72.46
2018-03-08T09:04:30.639Z,72.19
2018-03-08T09:06:58.957Z,71.89
2018-03-08T09:09:27.259Z,71.52
2018-03-08T09:11:55.532Z,71.60
2018-03-08T09:14:23.854Z,70.83
2018-03-08T09:16:52.128Z,70.20
2018-03-08T09:19:20.714Z,69.78
2018-03-08T09:21:49.121Z,69.55
2018-03-08T09:24:17.434Z,69.40
2018-03-08T09:26:45.728Z,69.96
2018-03-08T09:29:14.310Z,70.09
2018-03-08T09:31:42.741Z,70.32
2018-03-08T09:34:11.039Z,70.12
2018-03-08T09:36:40.283Z,69.36
2018-03-08T09:39:08.556Z,69.23
2018-03-08T09:41:36.868Z,68.49
2018-03-08T09:44:05.180Z,68.65
2018-03-08T09:46:33.800Z,68.12
2018-03-08T09:49:02.056Z,67.01
2018-03-08T09:51:30.341Z,67.26
2018-03-08T09:53:58.757Z,67.27
2018-03-08T09:56:27.116Z,66.79
2018-03-08T09:58:55.590Z,66.90
2018-03-08T10:01:26.256Z,67.06
2018-03-08T10:03:54.520Z,66.25
2018-03-08T10:06:22.808Z,65.50
2018-03-08T10:08:51.124Z,65.85
2018-03-08T10:11:19.432Z,65.33
2018-03-08T10:13:47.721Z,64.82
2018-03-08T10:16:16.563Z,64.07
2018-03-08T10:18:45.172Z,64.61
2018-03-08T10:21:13.441Z,64.46
2018-03-08T10:23:41.777Z,63.40
2018-03-08T10:26:10.169Z,63.19
2018-03-08T10:28:38.458Z,62.74
2018-03-08T10:31:07.215Z,62.35
2018-03-08T10:33:35.524Z,62.04
2018-03-08T10:36:03.812Z,61.84
2018-03-08T10:38:32.278Z,61.67
2018-03-08T10:41:00.609Z,61.85
2018-03-08T10:43:28.908Z,62.46
2018-03-08T10:45:57.191Z,62.06
2018-03-08T10:48:25.563Z,61.59
2018-03-08T10:50:53.979Z,60.86
2018-03-08T10:53:22.329Z,59.89
2018-03-08T10:55:50.633Z,59.48
2018-03-08T10:58:19.068Z,58.05
2018-03-08T11:00:54.227Z,58.68
2018-03-08T11:03:29.593Z,59.15
2018-03-08T11:05:57.893Z,58.90
2018-03-08T11:08:26.567Z,58.57
2018-03-08T11:10:54.897Z,58.98
2018-03-08T11:13:23.547Z,59.07
2018-03-08T11:15:51.955Z,58.75
2018-03-08T11:18:20.558Z,58.18
2018-03-08T11:20:49.022Z,57.99
2018-03-08T11:23:17.367Z,57.95
2018-03-08T11:25:45.628Z,57.78
2018-03-08T11:28:13.946Z,57.68
2018-03-08T11:30:42.224Z,57.58
2018-03-08T11:33:10.544Z,57.29
2018-03-08T11:35:38.852Z,57.07
2018-03-08T11:38:07.751Z,56.64
2018-03-08T11:40:36.119Z,56.01
2018-03-08T11:43:05.041Z,54.43
2018-03-08T11:45:33.570Z,53.95
2018-03-08T11:48:01.880Z,53.50
2018-03-08T11:50:30.358Z,53.73
2018-03-08T11:52:58.648Z,53.50
2018-03-08T11:55:26.960Z,53.49
2018-03-08T11:57:55.250Z,52.66
2018-03-08T12:00:23.568Z,52.90
2018-03-08T12:02:51.878Z,52.52
2018-03-08T12:05:20.997Z,51.64
2018-03-08T12:07:49.253Z,51.27
2018-03-08T12:10:17.609Z,51.42
2018-03-08T12:12:45.899Z,50.71
2018-03-08T12:15:14.265Z,50.32
2018-03-08T12:17:42.596Z,50.32
2018-03-08T12:20:10.911Z,49.32
2018-03-08T12:22:39.344Z,49.23
2018-03-08T12:25:07.647Z,49.02
2018-03-08T12:27:35.942Z,48.96
2018-03-08T12:30:04.963Z,48.18
2018-03-08T12:32:33.353Z,48.23
2018-03-08T12:35:01.657Z,48.14
2018-03-08T12:37:29.968Z,47.46
2018-03-08T12:39:58.257Z,47.45
2018-03-08T12:42:27.543Z,47.43
2018-03-08T12:44:55.896Z,47.67
2018-03-08T12:47:24.188Z,46.87
2018-03-08T12:49:52.517Z,46.94
2018-03-08T12:52:20.804Z,46.37
2018-03-08T12:54:49.145Z,47.05
2018-03-08T12:57:17.517Z,46.19
2018-03-08T12:59:45.729Z,46.79
2018-03-08T13:02:14.078Z,47.28
2018-03-08T13:04:42.460Z,47.03
2018-03-08T13:07:10.767Z,47.17
2018-03-08T13:09:39.018Z,47.11
2018-03-08T13:12:07.692Z,47.01
2018-03-08T13:14:37.682Z,47.17
2018-03-08T13:17:06.000Z,46.71
2018-03-08T13:19:34.289Z,45.58
2018-03-08T13:22:02.622Z,45.27
2018-03-08T13:24:31.030Z,45.54
2018-03-08T13:26:59.329Z,46.02
2018-03-08T13:29:27.596Z,45.41
2018-03-08T13:31:55.877Z,45.33
2018-03-08T13:34:25.361Z,45.49
2018-03-08T13:36:53.644Z,46.04
2018-03-08T13:39:21.932Z,46.41
2018-03-08T13:41:51.127Z,46.77
2018-03-08T13:44:19.602Z,46.87
2018-03-08T13:46:47.985Z,46.72
2018-03-08T13:49:28.061Z,46.36
2018-03-08T13:51:56.343Z,45.89
2018-03-08T13:54:24.660Z,46.01
2018-03-08T13:56:52.912Z,45.16
2018-03-08T13:59:21.473Z,45.55
2018-03-08T14:01:49.739Z,45.32
2018-03-08T14:04:18.720Z,45.62
2018-03-08T14:06:47.020Z,45.25
2018-03-08T14:09:15.431Z,45.55
2018-03-08T14:11:43.720Z,45.48
2018-03-08T14:14:12.335Z,45.19
2018-03-08T14:16:40.620Z,45.14
2018-03-08T14:19:08.949Z,45.08
2018-03-08T14:21:37.254Z,46.09
2018-03-08T14:24:05.598Z,45.44
2018-03-08T14:26:34.766Z,45.44
2018-03-08T14:29:03.056Z,45.31
2018-03-08T14:31:31.345Z,45.61
2018-03-08T14:33:59.660Z,45.50
2018-03-08T14:36:27.961Z,45.32
2018-03-08T14:38:56.273Z,45.57
2018-03-08T14:41:24.596Z,45.74
2018-03-08T14:43:52.976Z,45.63
2018-03-08T14:46:21.308Z,45.56
2018-03-08T14:48:49.583Z,45.55
2018-03-08T14:51:17.908Z,45.62
2018-03-08T14:53:47.227Z,45.83
2018-03-08T14:56:15.620Z,45.37
2018-03-08T14:58:43.879Z,45.16
2018-03-08T15:01:12.193Z,45.71
2018-03-08T15:03:40.457Z,45.21
2018-03-08T15:06:08.776Z,44.70
2018-03-08T15:08:37.103Z,43.76
2018-03-08T15:11:05.427Z,43.25
2018-03-08T15:13:33.755Z,44.04
2018-03-08T15:16:02.144Z,43.74
2018-03-08T15:18:30.427Z,43.80
2018-03-08T15:20:58.803Z,44.14
2018-03-08T15:23:27.076Z,44.25
2018-03-08T15:25:55.441Z,44.81
2018-03-08T15:28:23.814Z,44.34
2018-03-08T15:30:52.169Z,43.78
2018-03-08T15:33:20.467Z,43.77
2018-03-08T15:35:48.782Z,44.32
2018-03-08T15:38:17.152Z,44.75
2018-03-08T15:40:45.436Z,44.58
2018-03-08T15:43:13.778Z,44.10
2018-03-08T15:45:42.063Z,43.96
2018-03-08T15:48:10.553Z,43.73
2018-03-08T15:50:40.717Z,43.71
2018-03-08T15:53:09.062Z,44.01
2018-03-08T15:55:38.184Z,43.39
2018-03-08T15:58:06.474Z,43.33
2018-03-08T16:00:34.793Z,43.46
2018-03-08T16:03:03.187Z,42.79
2018-03-08T16:05:31.540Z,42.83
2018-03-08T16:11:15.915Z,43.41
2018-03-08T16:13:44.225Z,43.15
2018-03-08T16:16:12.507Z,43.10
2018-03-08T16:18:40.824Z,43.27
2018-03-08T16:21:09.083Z,43.49
2018-03-08T16:23:37.428Z,43.94
2018-03-08T16:26:05.844Z,43.84
2018-03-08T16:28:34.157Z,44.06
2018-03-08T16:31:02.501Z,44.05
2018-03-08T16:33:30.816Z,44.01
2018-03-08T16:35:59.207Z,44.14
2018-03-08T16:38:27.447Z,44.44
2018-03-08T16:40:55.750Z,44.44
2018-03-08T16:43:24.174Z,44.64
2018-03-08T16:45:52.513Z,45.03
2018-03-08T16:48:20.838Z,44.84
2018-03-08T16:50:49.199Z,45.09
2018-03-08T16:53:17.555Z,44.88
2018-03-08T16:55:45.858Z,44.85
2018-03-08T16:58:14.454Z,44.93
2018-03-08T17:00:42.771Z,45.23
2018-03-08T17:03:11.114Z,45.35
2018-03-08T17:05:39.435Z,45.48
2018-03-08T17:08:07.702Z,45.58
2018-03-08T17:10:36.033Z,45.71
2018-03-08T17:13:04.326Z,45.92
2018-03-08T17:15:32.644Z,45.70
2018-03-08T17:18:00.971Z,45.87
2018-03-08T17:20:29.292Z,45.94
2018-03-08T17:22:57.608Z,46.04
2018-03-08T17:25:25.950Z,46.12
2018-03-08T17:27:54.233Z,46.22
2018-03-08T17:30:22.552Z,46.31
2018-03-08T17:32:50.919Z,46.33
2018-03-08T17:35:19.285Z,46.29
2018-03-08T17:37:47.575Z,46.33
2018-03-08T17:40:15.872Z,46.32
2018-03-08T17:42:44.174Z,46.46
2018-03-08T17:45:12.508Z,46.30
2018-03-08T17:47:40.815Z,46.73
2018-03-08T17:50:09.099Z,48.09
2018-03-08T17:52:37.412Z,48.19
2018-03-08T17:55:05.767Z,48.73
2018-03-08T17:57:34.107Z,48.57
2018-03-08T18:00:02.502Z,48.94
2018-03-08T18:02:30.890Z,49.87
2018-03-08T18:04:59.373Z,51.39
2018-03-08T18:07:27.642Z,53.34
2018-03-08T18:09:56.527Z,56.13
2018-03-08T18:12:24.827Z,57.62
2018-03-08T18:14:53.100Z,59.21
2018-03-08T18:17:21.417Z,60.34
2018-03-08T18:19:49.739Z,61.63
2018-03-08T18:22:19.009Z,62.78
2018-03-08T18:24:47.280Z,63.07
2018-03-08T18:27:15.624Z,63.58
2018-03-08T18:29:43.924Z,64.10
2018-03-08T18:32:12.508Z,65.64
2018-03-08T18:34:40.785Z,67.20
2018-03-08T18:37:09.229Z,68.14
2018-03-08T18:39:37.552Z,69.47
2018-03-08T18:42:05.809Z,70.05
2018-03-08T18:44:34.128Z,70.12
2018-03-08T18:47:02.450Z,70.67
2018-03-08T18:49:30.775Z,70.91
2018-03-08T18:51:59.088Z,71.62
2018-03-08T18:54:27.395Z,71.29
2018-03-08T18:56:55.660Z,71.00
2018-03-08T18:59:23.956Z,71.65
2018-03-08T19:01:52.210Z,71.23
2018-03-08T19:04:20.504Z,71.04
2018-03-08T19:06:48.771Z,71.85
2018-03-08T19:09:17.099Z,71.79
2018-03-08T19:11:45.370Z,72.28
2018-03-08T19:14:13.684Z,72.41
2018-03-08T19:16:41.988Z,72.53
2018-03-08T19:21:37.663Z,72.37
2018-03-08T19:24:06.042Z,72.50
2018-03-08T19:26:34.352Z,72.13
2018-03-08T19:29:02.646Z,72.21
2018-03-08T19:31:30.930Z,73.16
2018-03-08T19:33:59.188Z,73.50
2018-03-08T19:36:27.489Z,73.31
2018-03-08T19:38:56.612Z,74.27
2018-03-08T19:41:24.942Z,76.37
2018-03-08T19:43:53.217Z,77.14
2018-03-08T19:46:21.512Z,76.88
2018-03-08T19:48:49.848Z,77.94
2018-03-08T19:51:18.139Z,77.80
2018-03-08T19:53:46.428Z,77.34
2018-03-08T19:56:14.731Z,77.99
2018-03-08T19:58:43.055Z,78.01
2018-03-08T20:01:11.363Z,78.31
2018-03-08T20:03:39.665Z,77.37
2018-03-08T20:06:07.958Z,77.86
2018-03-08T20:08:36.207Z,78.04
2018-03-08T20:11:05.282Z,78.01
2018-03-08T20:13:33.560Z,76.93
2018-03-08T20:16:01.874Z,75.57
2018-03-08T20:18:30.126Z,74.50
2018-03-08T20:20:58.781Z,74.78
2018-03-08T20:23:27.910Z,74.91
2018-03-08T20:25:57.151Z,73.62
2018-03-08T20:28:25.487Z,74.00
2018-03-08T20:30:53.873Z,74.76
2018-03-08T20:33:22.133Z,73.98
2018-03-08T20:35:50.418Z,75.13
2018-03-08T20:38:18.728Z,75.06
2018-03-08T20:40:47.263Z,75.75
2018-03-08T20:43:15.652Z,74.88
2018-03-08T20:45:43.949Z,74.15
2018-03-08T20:48:12.257Z,75.58
2018-03-08T20:50:41.249Z,75.93
2018-03-08T20:53:09.586Z,74.41
2018-03-08T20:55:37.881Z,76.88
2018-03-08T20:58:06.180Z,77.89
2018-03-08T21:00:34.458Z,76.92
2018-03-08T21:03:02.720Z,76.79
2018-03-08T21:05:30.997Z,75.17
2018-03-08T21:07:59.309Z,75.96
2018-03-08T21:10:27.683Z,76.36
2018-03-08T21:12:56.004Z,74.53
2018-03-08T21:15:24.270Z,74.47
2018-03-08T21:17:52.596Z,74.98
2018-03-08T21:20:20.861Z,75.73
2018-03-08T21:22:49.208Z,76.30
2018-03-08T21:25:17.477Z,76.68
2018-03-08T21:27:45.782Z,74.45
2018-03-08T21:30:14.054Z,74.38
2018-03-08T21:32:42.343Z,73.90
2018-03-08T21:35:10.664Z,74.80
2018-03-08T21:37:38.929Z,76.15
2018-03-08T21:40:07.254Z,76.41
2018-03-08T21:42:35.562Z,75.49
2018-03-08T21:45:03.862Z,74.39
2018-03-08T21:47:32.157Z,75.24
2018-03-08T21:50:00.495Z,74.74
2018-03-08T21:52:28.844Z,74.01
2018-03-08T21:54:57.138Z,73.84
2018-03-08T21:57:25.404Z,73.47
2018-03-08T21:59:53.729Z,74.08
2018-03-08T22:02:22.035Z,75.35
2018-03-08T22:04:50.333Z,76.13
2018-03-08T22:07:18.610Z,75.81
2018-03-08T22:09:46.864Z,75.74
2018-03-08T22:12:15.190Z,74.83
2018-03-08T22:14:43.439Z,74.78
2018-03-08T22:17:11.717Z,74.10
2018-03-08T22:19:40.053Z,74.67
2018-03-08T22:22:08.287Z,73.96
2018-03-08T22:24:36.600Z,73.48
2018-03-08T22:27:05.236Z,74.07
2018-03-08T22:29:33.521Z,74.23
2018-03-08T22:32:02.726Z,74.27
2018-03-08T22:34:31.113Z,74.22
2018-03-08T22:36:59.371Z,74.78
2018-03-08T22:39:27.648Z,74.39
2018-03-08T22:41:55.939Z,74.58
2018-03-08T22:44:24.211Z,74.41
2018-03-08T22:46:52.530Z,74.63
2018-03-08T22:49:20.784Z,75.62
2018-03-08T22:51:49.072Z,75.31
2018-03-08T22:54:17.316Z,76.05
2018-03-08T22:56:45.616Z,76.03
2018-03-08T22:59:13.896Z,75.75
2018-03-08T23:04:57.035Z,75.26
2018-03-08T23:07:25.361Z,75.45
2018-03-08T23:09:53.705Z,75.12
2018-03-08T23:12:22.025Z,74.55
2018-03-08T23:14:50.298Z,74.99
2018-03-08T23:17:18.626Z,75.02
2018-03-08T23:19:46.899Z,74.49
2018-03-08T23:22:15.225Z,74.35
2018-03-08T23:24:43.489Z,74.39
2018-03-08T23:27:11.789Z,74.39
2018-03-08T23:29:40.039Z,74.70
2018-03-08T23:32:08.375Z,74.56
2018-03-08T23:34:36.659Z,74.91
2018-03-08T23:37:04.979Z,74.56
2018-03-08T23:39:33.826Z,74.25
2018-03-08T23:42:02.142Z,75.66
2018-03-08T23:44:30.454Z,74.97
2018-03-08T23:46:58.801Z,75.38
2018-03-08T23:49:27.091Z,75.03
2018-03-08T23:51:55.372Z,75.10
2018-03-08T23:54:23.660Z,75.15
2018-03-08T23:56:51.956Z,75.09
2018-03-08T23:59:20.257Z,75.23
